sensor_id;sensor_type;location;lat;lon;timestamp;P1;durP1;ratioP1;P2;durP2;ratioP2
17259;SDS011;8746;49.230;9.220;2023-07-08T00:00:26;6.53;;;5.87;;
17259;SDS011;8746;49.230;9.220;2023-07-08T00:02:51;7.30;;;6.50;;
17259;SDS011;8746;49.230;9.220;2023-07-08T00:05:18;8.57;;;6.37;;
17259;SDS011;8746;49.230;9.220;2023-07-08T00:07:47;8.33;;;6.50;;
17259;SDS011;8746;49.230;9.220;2023-07-08T00:12:38;7.93;;;6.43;;
17259;SDS011;8746;49.230;9.220;2023-07-08T00:15:04;7.33;;;6.03;;
17259;SDS011;8746;49.230;9.220;2023-07-08T00:17:30;7.70;;;6.23;;
17259;SDS011;8746;49.230;9.220;2023-07-08T00:19:55;7.67;;;6.40;;
17259;SDS011;8746;49.230;9.220;2023-07-08T00:22:20;9.20;;;5.80;;
17259;SDS011;8746;49.230;9.220;2023-07-08T00:24:49;6.50;;;5.63;;
17259;SDS011;8746;49.230;9.220;2023-07-08T00:27:15;7.73;;;6.60;;
17259;SDS011;8746;49.230;9.220;2023-07-08T00:29:41;9.70;;;5.90;;
17259;SDS011;8746;49.230;9.220;2023-07-08T00:32:10;7.10;;;6.03;;
17259;SDS011;8746;49.230;9.220;2023-07-08T00:34:37;8.40;;;6.03;;
17259;SDS011;8746;49.230;9.220;2023-07-08T00:37:03;8.40;;;5.90;;
17259;SDS011;8746;49.230;9.220;2023-07-08T00:39:30;8.73;;;5.80;;
17259;SDS011;8746;49.230;9.220;2023-07-08T00:42:00;7.03;;;5.63;;
17259;SDS011;8746;49.230;9.220;2023-07-08T00:44:26;6.90;;;6.03;;
17259;SDS011;8746;49.230;9.220;2023-07-08T00:46:57;7.10;;;6.10;;
17259;SDS011;8746;49.230;9.220;2023-07-08T00:49:31;7.17;;;6.17;;
17259;SDS011;8746;49.230;9.220;2023-07-08T00:54:44;6.93;;;5.70;;
17259;SDS011;8746;49.230;9.220;2023-07-08T00:57:09;7.17;;;5.93;;
17259;SDS011;8746;49.230;9.220;2023-07-08T00:59:42;8.00;;;5.80;;
17259;SDS011;8746;49.230;9.220;2023-07-08T01:02:11;6.20;;;5.60;;
17259;SDS011;8746;49.230;9.220;2023-07-08T01:04:42;7.67;;;5.97;;
17259;SDS011;8746;49.230;9.220;2023-07-08T01:07:10;8.40;;;6.00;;
17259;SDS011;8746;49.230;9.220;2023-07-08T01:09:37;8.20;;;5.93;;
17259;SDS011;8746;49.230;9.220;2023-07-08T01:12:08;6.80;;;6.10;;
17259;SDS011;8746;49.230;9.220;2023-07-08T01:14:36;6.93;;;6.23;;
17259;SDS011;8746;49.230;9.220;2023-07-08T01:17:07;7.57;;;5.57;;
17259;SDS011;8746;49.230;9.220;2023-07-08T01:19:38;6.50;;;5.90;;
17259;SDS011;8746;49.230;9.220;2023-07-08T01:22:06;8.70;;;6.00;;
17259;SDS011;8746;49.230;9.220;2023-07-08T01:24:33;6.50;;;5.80;;
17259;SDS011;8746;49.230;9.220;2023-07-08T01:27:02;8.40;;;5.97;;
17259;SDS011;8746;49.230;9.220;2023-07-08T01:29:29;8.50;;;6.20;;
17259;SDS011;8746;49.230;9.220;2023-07-08T01:31:55;7.30;;;6.17;;
17259;SDS011;8746;49.230;9.220;2023-07-08T01:34:21;9.70;;;6.40;;
17259;SDS011;8746;49.230;9.220;2023-07-08T01:36:47;8.33;;;6.73;;
17259;SDS011;8746;49.230;9.220;2023-07-08T01:39:17;7.37;;;6.27;;
17259;SDS011;8746;49.230;9.220;2023-07-08T01:41:45;9.13;;;6.53;;
17259;SDS011;8746;49.230;9.220;2023-07-08T01:44:44;7.57;;;5.87;;
17259;SDS011;8746;49.230;9.220;2023-07-08T01:47:13;8.57;;;6.67;;
17259;SDS011;8746;49.230;9.220;2023-07-08T01:49:43;7.40;;;6.10;;
17259;SDS011;8746;49.230;9.220;2023-07-08T01:52:12;7.13;;;6.07;;
17259;SDS011;8746;49.230;9.220;2023-07-08T01:54:40;8.57;;;6.17;;
17259;SDS011;8746;49.230;9.220;2023-07-08T01:57:05;6.60;;;6.00;;
17259;SDS011;8746;49.230;9.220;2023-07-08T01:59:31;6.83;;;6.13;;
17259;SDS011;8746;49.230;9.220;2023-07-08T02:01:56;8.23;;;5.77;;
17259;SDS011;8746;49.230;9.220;2023-07-08T02:04:25;6.47;;;5.87;;
17259;SDS011;8746;49.230;9.220;2023-07-08T02:06:55;6.77;;;5.77;;
17259;SDS011;8746;49.230;9.220;2023-07-08T02:09:22;7.27;;;5.93;;
17259;SDS011;8746;49.230;9.220;2023-07-08T02:11:49;10.50;;;6.40;;
17259;SDS011;8746;49.230;9.220;2023-07-08T02:14:15;6.97;;;6.27;;
17259;SDS011;8746;49.230;9.220;2023-07-08T02:16:40;8.07;;;5.93;;
17259;SDS011;8746;49.230;9.220;2023-07-08T02:19:05;8.23;;;6.47;;
17259;SDS011;8746;49.230;9.220;2023-07-08T02:21:31;9.33;;;6.27;;
17259;SDS011;8746;49.230;9.220;2023-07-08T02:23:56;9.93;;;6.10;;
17259;SDS011;8746;49.230;9.220;2023-07-08T02:26:22;7.63;;;6.07;;
17259;SDS011;8746;49.230;9.220;2023-07-08T02:28:48;7.13;;;6.20;;
17259;SDS011;8746;49.230;9.220;2023-07-08T02:31:13;9.93;;;6.30;;
17259;SDS011;8746;49.230;9.220;2023-07-08T02:33:38;7.13;;;6.10;;
17259;SDS011;8746;49.230;9.220;2023-07-08T02:36:04;6.87;;;6.17;;
17259;SDS011;8746;49.230;9.220;2023-07-08T02:38:29;7.10;;;6.00;;
17259;SDS011;8746;49.230;9.220;2023-07-08T02:40:55;8.50;;;6.23;;
17259;SDS011;8746;49.230;9.220;2023-07-08T02:43:20;8.57;;;5.90;;
17259;SDS011;8746;49.230;9.220;2023-07-08T02:45:48;6.33;;;5.63;;
17259;SDS011;8746;49.230;9.220;2023-07-08T02:48:14;8.83;;;5.73;;
17259;SDS011;8746;49.230;9.220;2023-07-08T02:50:39;6.97;;;5.83;;
17259;SDS011;8746;49.230;9.220;2023-07-08T02:53:04;8.53;;;6.20;;
17259;SDS011;8746;49.230;9.220;2023-07-08T02:55:30;8.40;;;6.03;;
17259;SDS011;8746;49.230;9.220;2023-07-08T02:57:55;6.43;;;5.83;;
17259;SDS011;8746;49.230;9.220;2023-07-08T03:00:21;7.30;;;6.60;;
17259;SDS011;8746;49.230;9.220;2023-07-08T03:02:46;10.43;;;6.50;;
17259;SDS011;8746;49.230;9.220;2023-07-08T03:05:11;8.20;;;6.37;;
17259;SDS011;8746;49.230;9.220;2023-07-08T03:07:37;10.80;;;6.50;;
17259;SDS011;8746;49.230;9.220;2023-07-08T03:10:02;7.50;;;6.33;;
17259;SDS011;8746;49.230;9.220;2023-07-08T03:12:28;9.13;;;6.37;;
17259;SDS011;8746;49.230;9.220;2023-07-08T03:14:53;7.77;;;6.17;;
17259;SDS011;8746;49.230;9.220;2023-07-08T03:17:19;8.60;;;6.40;;
17259;SDS011;8746;49.230;9.220;2023-07-08T03:19:44;9.13;;;5.73;;
17259;SDS011;8746;49.230;9.220;2023-07-08T03:22:09;8.70;;;6.37;;
17259;SDS011;8746;49.230;9.220;2023-07-08T03:24:35;8.33;;;6.20;;
17259;SDS011;8746;49.230;9.220;2023-07-08T03:27:00;8.13;;;6.90;;
17259;SDS011;8746;49.230;9.220;2023-07-08T03:29:29;7.97;;;6.87;;
17259;SDS011;8746;49.230;9.220;2023-07-08T03:31:55;8.60;;;6.73;;
17259;SDS011;8746;49.230;9.220;2023-07-08T03:34:20;8.20;;;6.60;;
17259;SDS011;8746;49.230;9.220;2023-07-08T03:36:47;7.33;;;6.03;;
17259;SDS011;8746;49.230;9.220;2023-07-08T03:39:15;9.20;;;6.37;;
17259;SDS011;8746;49.230;9.220;2023-07-08T03:41:42;6.77;;;5.93;;
17259;SDS011;8746;49.230;9.220;2023-07-08T03:44:08;8.70;;;6.40;;
17259;SDS011;8746;49.230;9.220;2023-07-08T03:46:36;7.37;;;6.40;;
17259;SDS011;8746;49.230;9.220;2023-07-08T03:49:02;7.87;;;6.63;;
17259;SDS011;8746;49.230;9.220;2023-07-08T03:51:28;8.03;;;6.70;;
17259;SDS011;8746;49.230;9.220;2023-07-08T03:53:56;8.37;;;6.80;;
17259;SDS011;8746;49.230;9.220;2023-07-08T03:56:22;7.87;;;5.73;;
17259;SDS011;8746;49.230;9.220;2023-07-08T03:58:48;9.43;;;6.40;;
17259;SDS011;8746;49.230;9.220;2023-07-08T04:01:15;7.50;;;6.10;;
17259;SDS011;8746;49.230;9.220;2023-07-08T04:03:42;7.33;;;6.20;;
17259;SDS011;8746;49.230;9.220;2023-07-08T04:06:08;7.80;;;6.10;;
17259;SDS011;8746;49.230;9.220;2023-07-08T04:08:34;8.13;;;5.70;;
17259;SDS011;8746;49.230;9.220;2023-07-08T04:10:59;8.93;;;6.70;;
17259;SDS011;8746;49.230;9.220;2023-07-08T04:13:25;8.73;;;6.30;;
17259;SDS011;8746;49.230;9.220;2023-07-08T04:15:51;7.00;;;6.07;;
17259;SDS011;8746;49.230;9.220;2023-07-08T04:18:20;8.63;;;6.30;;
17259;SDS011;8746;49.230;9.220;2023-07-08T04:20:45;7.97;;;6.40;;
17259;SDS011;8746;49.230;9.220;2023-07-08T04:23:17;11.03;;;6.17;;
17259;SDS011;8746;49.230;9.220;2023-07-08T04:25:42;6.83;;;5.87;;
17259;SDS011;8746;49.230;9.220;2023-07-08T04:28:08;8.40;;;6.10;;
17259;SDS011;8746;49.230;9.220;2023-07-08T04:30:36;6.50;;;5.60;;
17259;SDS011;8746;49.230;9.220;2023-07-08T04:33:06;8.77;;;6.33;;
17259;SDS011;8746;49.230;9.220;2023-07-08T04:35:35;6.83;;;6.00;;
17259;SDS011;8746;49.230;9.220;2023-07-08T04:38:03;6.13;;;5.47;;
17259;SDS011;8746;49.230;9.220;2023-07-08T04:40:39;7.57;;;5.80;;
17259;SDS011;8746;49.230;9.220;2023-07-08T04:43:07;6.57;;;5.87;;
17259;SDS011;8746;49.230;9.220;2023-07-08T04:45:32;6.00;;;5.30;;
17259;SDS011;8746;49.230;9.220;2023-07-08T04:47:58;7.53;;;5.80;;
17259;SDS011;8746;49.230;9.220;2023-07-08T04:50:24;7.13;;;5.63;;
17259;SDS011;8746;49.230;9.220;2023-07-08T04:52:49;7.20;;;5.73;;
17259;SDS011;8746;49.230;9.220;2023-07-08T04:55:14;6.07;;;5.47;;
17259;SDS011;8746;49.230;9.220;2023-07-08T04:57:40;7.03;;;5.57;;
17259;SDS011;8746;49.230;9.220;2023-07-08T05:00:05;6.20;;;5.27;;
17259;SDS011;8746;49.230;9.220;2023-07-08T05:02:35;7.10;;;5.20;;
17259;SDS011;8746;49.230;9.220;2023-07-08T05:05:00;5.63;;;5.03;;
17259;SDS011;8746;49.230;9.220;2023-07-08T05:07:26;5.53;;;5.03;;
17259;SDS011;8746;49.230;9.220;2023-07-08T05:09:52;8.70;;;5.73;;
17259;SDS011;8746;49.230;9.220;2023-07-08T05:12:17;5.90;;;5.30;;
17259;SDS011;8746;49.230;9.220;2023-07-08T05:14:42;7.67;;;5.20;;
17259;SDS011;8746;49.230;9.220;2023-07-08T05:17:08;6.23;;;5.30;;
17259;SDS011;8746;49.230;9.220;2023-07-08T05:19:34;5.93;;;5.00;;
17259;SDS011;8746;49.230;9.220;2023-07-08T05:21:59;6.93;;;5.03;;
17259;SDS011;8746;49.230;9.220;2023-07-08T05:24:24;5.87;;;5.27;;
17259;SDS011;8746;49.230;9.220;2023-07-08T05:26:50;7.17;;;4.93;;
17259;SDS011;8746;49.230;9.220;2023-07-08T05:29:15;7.20;;;5.10;;
17259;SDS011;8746;49.230;9.220;2023-07-08T05:31:40;5.40;;;4.90;;
17259;SDS011;8746;49.230;9.220;2023-07-08T05:34:06;8.77;;;5.13;;
17259;SDS011;8746;49.230;9.220;2023-07-08T05:36:31;5.83;;;5.07;;
17259;SDS011;8746;49.230;9.220;2023-07-08T05:38:56;5.90;;;5.30;;
17259;SDS011;8746;49.230;9.220;2023-07-08T05:41:22;5.83;;;4.70;;
17259;SDS011;8746;49.230;9.220;2023-07-08T05:43:48;7.37;;;4.70;;
17259;SDS011;8746;49.230;9.220;2023-07-08T05:46:13;5.83;;;4.67;;
17259;SDS011;8746;49.230;9.220;2023-07-08T05:48:39;6.53;;;5.00;;
17259;SDS011;8746;49.230;9.220;2023-07-08T05:51:04;5.03;;;4.50;;
17259;SDS011;8746;49.230;9.220;2023-07-08T05:53:30;10.07;;;5.13;;
17259;SDS011;8746;49.230;9.220;2023-07-08T05:55:55;6.90;;;4.87;;
17259;SDS011;8746;49.230;9.220;2023-07-08T05:58:21;7.07;;;4.97;;
17259;SDS011;8746;49.230;9.220;2023-07-08T06:00:47;6.00;;;4.63;;
17259;SDS011;8746;49.230;9.220;2023-07-08T06:03:12;5.70;;;5.00;;
17259;SDS011;8746;49.230;9.220;2023-07-08T06:05:37;5.23;;;4.73;;
17259;SDS011;8746;49.230;9.220;2023-07-08T06:08:03;6.55;;;4.93;;
17259;SDS011;8746;49.230;9.220;2023-07-08T06:10:30;5.53;;;5.03;;
17259;SDS011;8746;49.230;9.220;2023-07-08T06:12:55;5.10;;;4.60;;
17259;SDS011;8746;49.230;9.220;2023-07-08T06:15:20;6.93;;;4.90;;
17259;SDS011;8746;49.230;9.220;2023-07-08T06:17:46;6.75;;;4.70;;
17259;SDS011;8746;49.230;9.220;2023-07-08T06:20:11;5.47;;;4.90;;
17259;SDS011;8746;49.230;9.220;2023-07-08T06:22:36;5.15;;;4.47;;
17259;SDS011;8746;49.230;9.220;2023-07-08T06:25:02;5.60;;;5.00;;
17259;SDS011;8746;49.230;9.220;2023-07-08T06:27:27;6.20;;;4.75;;
17259;SDS011;8746;49.230;9.220;2023-07-08T06:29:53;5.25;;;4.72;;
17259;SDS011;8746;49.230;9.220;2023-07-08T06:32:18;6.00;;;4.75;;
17259;SDS011;8746;49.230;9.220;2023-07-08T06:34:43;5.82;;;4.65;;
17259;SDS011;8746;49.230;9.220;2023-07-08T06:37:09;6.15;;;4.70;;
17259;SDS011;8746;49.230;9.220;2023-07-08T06:39:34;7.13;;;4.55;;
17259;SDS011;8746;49.230;9.220;2023-07-08T06:42:00;6.65;;;4.80;;
17259;SDS011;8746;49.230;9.220;2023-07-08T06:44:25;5.60;;;5.00;;
17259;SDS011;8746;49.230;9.220;2023-07-08T06:46:51;5.85;;;4.80;;
17259;SDS011;8746;49.230;9.220;2023-07-08T06:49:17;4.80;;;4.35;;
17259;SDS011;8746;49.230;9.220;2023-07-08T06:51:42;6.07;;;4.82;;
17259;SDS011;8746;49.230;9.220;2023-07-08T06:54:10;6.43;;;4.53;;
17259;SDS011;8746;49.230;9.220;2023-07-08T06:56:38;9.50;;;4.70;;
17259;SDS011;8746;49.230;9.220;2023-07-08T06:59:05;6.60;;;5.20;;
17259;SDS011;8746;49.230;9.220;2023-07-08T07:01:31;6.40;;;5.15;;
17259;SDS011;8746;49.230;9.220;2023-07-08T07:03:56;5.28;;;4.78;;
17259;SDS011;8746;49.230;9.220;2023-07-08T07:06:22;5.40;;;4.90;;
17259;SDS011;8746;49.230;9.220;2023-07-08T07:08:48;5.28;;;4.78;;
17259;SDS011;8746;49.230;9.220;2023-07-08T07:11:13;6.05;;;4.80;;
17259;SDS011;8746;49.230;9.220;2023-07-08T07:13:38;6.22;;;4.50;;
17259;SDS011;8746;49.230;9.220;2023-07-08T07:16:04;7.47;;;4.60;;
17259;SDS011;8746;49.230;9.220;2023-07-08T07:18:30;7.15;;;4.60;;
17259;SDS011;8746;49.230;9.220;2023-07-08T07:20:57;5.82;;;5.03;;
17259;SDS011;8746;49.230;9.220;2023-07-08T07:23:23;6.70;;;4.68;;
17259;SDS011;8746;49.230;9.220;2023-07-08T07:25:49;5.30;;;4.78;;
17259;SDS011;8746;49.230;9.220;2023-07-08T07:28:15;5.45;;;4.95;;
17259;SDS011;8746;49.230;9.220;2023-07-08T07:30:44;6.22;;;4.72;;
17259;SDS011;8746;49.230;9.220;2023-07-08T07:33:11;5.35;;;4.70;;
17259;SDS011;8746;49.230;9.220;2023-07-08T07:35:41;5.07;;;4.57;;
17259;SDS011;8746;49.230;9.220;2023-07-08T07:38:08;6.63;;;5.00;;
17259;SDS011;8746;49.230;9.220;2023-07-08T07:40:33;5.32;;;4.82;;
17259;SDS011;8746;49.230;9.220;2023-07-08T07:42:58;5.50;;;4.70;;
17259;SDS011;8746;49.230;9.220;2023-07-08T07:45:23;6.18;;;5.00;;
17259;SDS011;8746;49.230;9.220;2023-07-08T07:47:49;5.18;;;4.68;;
17259;SDS011;8746;49.230;9.220;2023-07-08T07:50:14;5.72;;;5.13;;
17259;SDS011;8746;49.230;9.220;2023-07-08T07:52:40;6.75;;;4.55;;
17259;SDS011;8746;49.230;9.220;2023-07-08T07:55:05;5.78;;;4.30;;
17259;SDS011;8746;49.230;9.220;2023-07-08T07:57:32;4.45;;;4.00;;
17259;SDS011;8746;49.230;9.220;2023-07-08T07:59:57;5.05;;;4.55;;
17259;SDS011;8746;49.230;9.220;2023-07-08T08:02:23;6.28;;;4.60;;
17259;SDS011;8746;49.230;9.220;2023-07-08T08:04:48;6.13;;;4.80;;
17259;SDS011;8746;49.230;9.220;2023-07-08T08:07:13;5.30;;;4.80;;
17259;SDS011;8746;49.230;9.220;2023-07-08T08:09:39;5.20;;;4.10;;
17259;SDS011;8746;49.230;9.220;2023-07-08T08:12:06;5.13;;;4.22;;
17259;SDS011;8746;49.230;9.220;2023-07-08T08:14:34;5.53;;;4.25;;
17259;SDS011;8746;49.230;9.220;2023-07-08T08:17:00;5.10;;;4.32;;
17259;SDS011;8746;49.230;9.220;2023-07-08T08:19:25;4.82;;;4.43;;
17259;SDS011;8746;49.230;9.220;2023-07-08T08:21:50;7.38;;;4.60;;
17259;SDS011;8746;49.230;9.220;2023-07-08T08:24:15;5.22;;;4.22;;
17259;SDS011;8746;49.230;9.220;2023-07-08T08:26:41;4.75;;;4.28;;
17259;SDS011;8746;49.230;9.220;2023-07-08T08:29:06;4.65;;;3.95;;
17259;SDS011;8746;49.230;9.220;2023-07-08T08:31:31;4.72;;;4.28;;
17259;SDS011;8746;49.230;9.220;2023-07-08T08:33:57;5.60;;;3.83;;
17259;SDS011;8746;49.230;9.220;2023-07-08T08:36:22;4.90;;;4.38;;
17259;SDS011;8746;49.230;9.220;2023-07-08T08:38:48;6.05;;;4.13;;
17259;SDS011;8746;49.230;9.220;2023-07-08T08:41:16;5.28;;;4.03;;
17259;SDS011;8746;49.230;9.220;2023-07-08T08:43:44;4.22;;;3.83;;
17259;SDS011;8746;49.230;9.220;2023-07-08T08:48:48;4.93;;;4.05;;
17259;SDS011;8746;49.230;9.220;2023-07-08T08:51:16;5.72;;;4.57;;
17259;SDS011;8746;49.230;9.220;2023-07-08T08:53:42;5.75;;;4.55;;
17259;SDS011;8746;49.230;9.220;2023-07-08T08:56:31;5.88;;;4.75;;
17259;SDS011;8746;49.230;9.220;2023-07-08T08:59:11;4.75;;;4.10;;
17259;SDS011;8746;49.230;9.220;2023-07-08T09:01:47;4.25;;;3.72;;
17259;SDS011;8746;49.230;9.220;2023-07-08T09:04:15;5.22;;;3.97;;
17259;SDS011;8746;49.230;9.220;2023-07-08T09:06:47;5.07;;;4.03;;
17259;SDS011;8746;49.230;9.220;2023-07-08T09:09:15;4.80;;;4.40;;
17259;SDS011;8746;49.230;9.220;2023-07-08T09:14:52;5.53;;;4.30;;
17259;SDS011;8746;49.230;9.220;2023-07-08T09:17:22;5.80;;;4.55;;
17259;SDS011;8746;49.230;9.220;2023-07-08T09:20:17;5.70;;;4.40;;
17259;SDS011;8746;49.230;9.220;2023-07-08T09:22:50;5.15;;;4.10;;
17259;SDS011;8746;49.230;9.220;2023-07-08T09:25:22;5.18;;;3.90;;
17259;SDS011;8746;49.230;9.220;2023-07-08T09:28:07;6.07;;;3.80;;
17259;SDS011;8746;49.230;9.220;2023-07-08T09:30:33;4.63;;;3.90;;
17259;SDS011;8746;49.230;9.220;2023-07-08T09:33:02;3.78;;;3.45;;
17259;SDS011;8746;49.230;9.220;2023-07-08T09:35:28;8.35;;;4.25;;
17259;SDS011;8746;49.230;9.220;2023-07-08T09:38:06;6.95;;;3.63;;
17259;SDS011;8746;49.230;9.220;2023-07-08T09:40:42;3.65;;;3.35;;
17259;SDS011;8746;49.230;9.220;2023-07-08T09:45:49;4.50;;;3.58;;
17259;SDS011;8746;49.230;9.220;2023-07-08T09:48:16;5.40;;;3.58;;
17259;SDS011;8746;49.230;9.220;2023-07-08T09:50:57;4.85;;;3.60;;
17259;SDS011;8746;49.230;9.220;2023-07-08T09:53:23;3.60;;;3.13;;
17259;SDS011;8746;49.230;9.220;2023-07-08T09:55:50;4.32;;;3.28;;
17259;SDS011;8746;49.230;9.220;2023-07-08T09:58:35;5.63;;;3.80;;
17259;SDS011;8746;49.230;9.220;2023-07-08T10:01:10;7.18;;;3.33;;
17259;SDS011;8746;49.230;9.220;2023-07-08T10:03:38;4.90;;;3.40;;
17259;SDS011;8746;49.230;9.220;2023-07-08T10:06:17;6.95;;;3.97;;
17259;SDS011;8746;49.230;9.220;2023-07-08T10:08:47;5.65;;;3.70;;
17259;SDS011;8746;49.230;9.220;2023-07-08T10:11:16;4.00;;;3.17;;
17259;SDS011;8746;49.230;9.220;2023-07-08T10:13:49;3.70;;;3.25;;
17259;SDS011;8746;49.230;9.220;2023-07-08T10:16:30;4.30;;;3.05;;
17259;SDS011;8746;49.230;9.220;2023-07-08T10:18:57;3.85;;;3.20;;
17259;SDS011;8746;49.230;9.220;2023-07-08T10:21:45;4.18;;;3.38;;
17259;SDS011;8746;49.230;9.220;2023-07-08T10:30:19;5.30;;;3.25;;
17259;SDS011;8746;49.230;9.220;2023-07-08T10:33:28;4.78;;;3.35;;
17259;SDS011;8746;49.230;9.220;2023-07-08T10:36:12;4.20;;;3.28;;
17259;SDS011;8746;49.230;9.220;2023-07-08T10:41:41;3.97;;;3.53;;
17259;SDS011;8746;49.230;9.220;2023-07-08T10:44:18;4.70;;;3.75;;
17259;SDS011;8746;49.230;9.220;2023-07-08T10:49:36;4.72;;;3.72;;
17259;SDS011;8746;49.230;9.220;2023-07-08T11:03:53;5.72;;;3.92;;
17259;SDS011;8746;49.230;9.220;2023-07-08T11:06:22;4.85;;;3.88;;
17259;SDS011;8746;49.230;9.220;2023-07-08T11:08:53;6.35;;;3.63;;
17259;SDS011;8746;49.230;9.220;2023-07-08T11:14:14;6.43;;;4.10;;
17259;SDS011;8746;49.230;9.220;2023-07-08T11:17:20;9.23;;;4.00;;
17259;SDS011;8746;49.230;9.220;2023-07-08T11:20:34;5.07;;;3.70;;
17259;SDS011;8746;49.230;9.220;2023-07-08T11:22:35;6.53;;;3.90;;
17259;SDS011;8746;49.230;9.220;2023-07-08T11:25:14;5.15;;;3.83;;
17259;SDS011;8746;49.230;9.220;2023-07-08T11:27:44;4.30;;;3.80;;
17259;SDS011;8746;49.230;9.220;2023-07-08T11:30:13;4.43;;;4.03;;
17259;SDS011;8746;49.230;9.220;2023-07-08T11:32:42;4.50;;;3.85;;
17259;SDS011;8746;49.230;9.220;2023-07-08T11:35:17;4.82;;;3.47;;
17259;SDS011;8746;49.230;9.220;2023-07-08T11:38:04;4.70;;;3.72;;
17259;SDS011;8746;49.230;9.220;2023-07-08T11:40:36;4.80;;;3.92;;
17259;SDS011;8746;49.230;9.220;2023-07-08T11:43:15;5.35;;;3.58;;
17259;SDS011;8746;49.230;9.220;2023-07-08T11:45:41;4.03;;;3.60;;
17259;SDS011;8746;49.230;9.220;2023-07-08T11:48:12;4.63;;;3.55;;
17259;SDS011;8746;49.230;9.220;2023-07-08T11:50:41;5.78;;;3.75;;
17259;SDS011;8746;49.230;9.220;2023-07-08T11:53:08;4.68;;;3.53;;
17259;SDS011;8746;49.230;9.220;2023-07-08T11:55:43;5.47;;;3.47;;
17259;SDS011;8746;49.230;9.220;2023-07-08T11:58:30;4.22;;;3.72;;
17259;SDS011;8746;49.230;9.220;2023-07-08T12:03:47;5.57;;;4.00;;
17259;SDS011;8746;49.230;9.220;2023-07-08T12:08:52;5.18;;;3.63;;
17259;SDS011;8746;49.230;9.220;2023-07-08T12:11:18;6.80;;;4.05;;
17259;SDS011;8746;49.230;9.220;2023-07-08T12:13:51;5.70;;;4.00;;
17259;SDS011;8746;49.230;9.220;2023-07-08T12:16:18;4.63;;;3.78;;
17259;SDS011;8746;49.230;9.220;2023-07-08T12:18:44;5.35;;;3.90;;
17259;SDS011;8746;49.230;9.220;2023-07-08T12:21:12;4.53;;;3.70;;
17259;SDS011;8746;49.230;9.220;2023-07-08T12:23:43;4.65;;;3.33;;
17259;SDS011;8746;49.230;9.220;2023-07-08T12:26:10;4.13;;;3.75;;
17259;SDS011;8746;49.230;9.220;2023-07-08T12:28:36;3.97;;;3.63;;
17259;SDS011;8746;49.230;9.220;2023-07-08T12:31:04;4.32;;;3.80;;
17259;SDS011;8746;49.230;9.220;2023-07-08T12:33:39;7.15;;;3.92;;
17259;SDS011;8746;49.230;9.220;2023-07-08T12:36:05;4.05;;;3.65;;
17259;SDS011;8746;49.230;9.220;2023-07-08T12:38:37;4.35;;;3.92;;
17259;SDS011;8746;49.230;9.220;2023-07-08T12:41:20;4.65;;;3.40;;
17259;SDS011;8746;49.230;9.220;2023-07-08T12:43:47;3.90;;;3.38;;
17259;SDS011;8746;49.230;9.220;2023-07-08T12:46:14;3.88;;;3.47;;
17259;SDS011;8746;49.230;9.220;2023-07-08T12:48:41;4.15;;;3.30;;
17259;SDS011;8746;49.230;9.220;2023-07-08T12:51:10;4.50;;;3.60;;
17259;SDS011;8746;49.230;9.220;2023-07-08T12:53:41;3.47;;;3.17;;
17259;SDS011;8746;49.230;9.220;2023-07-08T12:56:07;4.30;;;3.90;;
17259;SDS011;8746;49.230;9.220;2023-07-08T12:58:34;6.60;;;3.50;;
17259;SDS011;8746;49.230;9.220;2023-07-08T13:01:04;4.03;;;3.58;;
17259;SDS011;8746;49.230;9.220;2023-07-08T13:03:34;6.22;;;3.50;;
17259;SDS011;8746;49.230;9.220;2023-07-08T13:06:02;5.78;;;3.50;;
17259;SDS011;8746;49.230;9.220;2023-07-08T13:08:29;5.65;;;3.60;;
17259;SDS011;8746;49.230;9.220;2023-07-08T13:11:01;4.00;;;3.58;;
17259;SDS011;8746;49.230;9.220;2023-07-08T13:13:30;3.90;;;3.50;;
17259;SDS011;8746;49.230;9.220;2023-07-08T13:15:59;3.90;;;3.50;;
17259;SDS011;8746;49.230;9.220;2023-07-08T13:21:02;4.10;;;3.40;;
17259;SDS011;8746;49.230;9.220;2023-07-08T13:23:29;3.70;;;3.22;;
17259;SDS011;8746;49.230;9.220;2023-07-08T13:25:55;3.70;;;3.17;;
17259;SDS011;8746;49.230;9.220;2023-07-08T13:30:56;3.83;;;3.13;;
17259;SDS011;8746;49.230;9.220;2023-07-08T13:33:28;3.70;;;3.35;;
17259;SDS011;8746;49.230;9.220;2023-07-08T13:35:55;4.60;;;3.17;;
17259;SDS011;8746;49.230;9.220;2023-07-08T13:38:22;3.50;;;3.05;;
17259;SDS011;8746;49.230;9.220;2023-07-08T13:40:54;5.05;;;3.38;;
17259;SDS011;8746;49.230;9.220;2023-07-08T13:43:27;4.32;;;3.30;;
17259;SDS011;8746;49.230;9.220;2023-07-08T13:45:58;4.93;;;3.20;;
17259;SDS011;8746;49.230;9.220;2023-07-08T13:51:07;4.65;;;2.97;;
17259;SDS011;8746;49.230;9.220;2023-07-08T13:56:03;3.60;;;3.22;;
17259;SDS011;8746;49.230;9.220;2023-07-08T13:58:41;3.42;;;3.13;;
17259;SDS011;8746;49.230;9.220;2023-07-08T14:01:08;4.28;;;3.08;;
17259;SDS011;8746;49.230;9.220;2023-07-08T14:03:40;3.90;;;3.08;;
17259;SDS011;8746;49.230;9.220;2023-07-08T14:06:10;3.33;;;2.97;;
17259;SDS011;8746;49.230;9.220;2023-07-08T14:08:41;3.78;;;3.10;;
17259;SDS011;8746;49.230;9.220;2023-07-08T14:11:06;4.60;;;2.92;;
17259;SDS011;8746;49.230;9.220;2023-07-08T14:13:31;3.70;;;3.40;;
17259;SDS011;8746;49.230;9.220;2023-07-08T14:15:57;3.92;;;3.50;;
17259;SDS011;8746;49.230;9.220;2023-07-08T14:18:22;4.82;;;3.17;;
17259;SDS011;8746;49.230;9.220;2023-07-08T14:20:48;5.53;;;3.58;;
17259;SDS011;8746;49.230;9.220;2023-07-08T14:23:13;3.60;;;3.22;;
17259;SDS011;8746;49.230;9.220;2023-07-08T14:25:39;3.45;;;3.15;;
17259;SDS011;8746;49.230;9.220;2023-07-08T14:28:04;3.45;;;3.15;;
17259;SDS011;8746;49.230;9.220;2023-07-08T14:30:31;3.30;;;3.00;;
17259;SDS011;8746;49.230;9.220;2023-07-08T14:32:57;3.50;;;3.17;;
17259;SDS011;8746;49.230;9.220;2023-07-08T14:37:53;3.85;;;3.22;;
17259;SDS011;8746;49.230;9.220;2023-07-08T14:43:04;3.42;;;3.13;;
17259;SDS011;8746;49.230;9.220;2023-07-08T14:45:42;3.53;;;3.20;;
17259;SDS011;8746;49.230;9.220;2023-07-08T14:48:11;3.65;;;3.28;;
17259;SDS011;8746;49.230;9.220;2023-07-08T14:50:37;5.13;;;3.30;;
17259;SDS011;8746;49.230;9.220;2023-07-08T14:53:03;6.05;;;3.50;;
17259;SDS011;8746;49.230;9.220;2023-07-08T14:55:28;4.20;;;3.00;;
17259;SDS011;8746;49.230;9.220;2023-07-08T14:57:54;4.28;;;3.22;;
17259;SDS011;8746;49.230;9.220;2023-07-08T15:00:21;4.32;;;3.40;;
17259;SDS011;8746;49.230;9.220;2023-07-08T15:02:47;3.53;;;3.22;;
17259;SDS011;8746;49.230;9.220;2023-07-08T15:05:16;3.75;;;3.38;;
17259;SDS011;8746;49.230;9.220;2023-07-08T15:07:44;3.60;;;2.92;;
17259;SDS011;8746;49.230;9.220;2023-07-08T15:10:12;3.92;;;2.97;;
17259;SDS011;8746;49.230;9.220;2023-07-08T15:12:38;3.78;;;3.15;;
17259;SDS011;8746;49.230;9.220;2023-07-08T15:15:04;3.42;;;3.10;;
17259;SDS011;8746;49.230;9.220;2023-07-08T15:17:30;3.30;;;3.05;;
17259;SDS011;8746;49.230;9.220;2023-07-08T15:19:55;7.43;;;3.42;;
17259;SDS011;8746;49.230;9.220;2023-07-08T15:22:20;4.60;;;3.40;;
17259;SDS011;8746;49.230;9.220;2023-07-08T15:24:46;5.18;;;3.13;;
17259;SDS011;8746;49.230;9.220;2023-07-08T15:27:11;4.57;;;3.47;;
17259;SDS011;8746;49.230;9.220;2023-07-08T15:29:38;4.15;;;3.22;;
17259;SDS011;8746;49.230;9.220;2023-07-08T15:32:04;4.20;;;3.25;;
17259;SDS011;8746;49.230;9.220;2023-07-08T15:34:37;5.13;;;3.20;;
17259;SDS011;8746;49.230;9.220;2023-07-08T15:37:02;3.58;;;3.28;;
17259;SDS011;8746;49.230;9.220;2023-07-08T15:39:27;3.72;;;3.22;;
17259;SDS011;8746;49.230;9.220;2023-07-08T15:41:53;4.03;;;3.33;;
17259;SDS011;8746;49.230;9.220;2023-07-08T15:44:18;3.50;;;3.13;;
17259;SDS011;8746;49.230;9.220;2023-07-08T15:46:44;3.72;;;3.33;;
17259;SDS011;8746;49.230;9.220;2023-07-08T15:49:15;4.03;;;3.10;;
17259;SDS011;8746;49.230;9.220;2023-07-08T15:51:42;3.67;;;3.28;;
17259;SDS011;8746;49.230;9.220;2023-07-08T15:54:07;3.80;;;2.92;;
17259;SDS011;8746;49.230;9.220;2023-07-08T15:56:33;5.47;;;3.15;;
17259;SDS011;8746;49.230;9.220;2023-07-08T15:58:59;4.30;;;3.03;;
17259;SDS011;8746;49.230;9.220;2023-07-08T16:01:25;3.75;;;3.45;;
17259;SDS011;8746;49.230;9.220;2023-07-08T16:03:51;4.68;;;3.08;;
17259;SDS011;8746;49.230;9.220;2023-07-08T16:06:17;2.92;;;2.72;;